createdAt,value
2023-01-11T00:00:02.967Z,96243.97
2023-01-11T00:01:08.983Z,96250.81
2023-01-11T00:02:11.630Z,96245.66
2023-01-11T00:03:17.584Z,96249.94
2023-01-11T00:04:30.858Z,96249.03
2023-01-11T00:05:37.198Z,96241.34
2023-01-11T00:06:43.164Z,96251.53
2023-01-11T00:07:45.496Z,96249.00
2023-01-11T00:08:50.332Z,96252.41
2023-01-11T00:09:52.771Z,96255.78
2023-01-11T00:11:01.207Z,96252.25
2023-01-11T00:12:06.613Z,96247.19
2023-01-11T00:13:11.895Z,96248.91
2023-01-11T00:14:15.280Z,96254.03
2023-01-11T00:15:20.619Z,96255.69
2023-01-11T00:16:23.000Z,96255.69
2023-01-11T00:17:28.783Z,96251.41
2023-01-11T00:18:31.162Z,96251.41
2023-01-11T00:19:36.710Z,96253.97
2023-01-11T00:20:40.354Z,96255.63
2023-01-11T00:21:46.763Z,96244.50
2023-01-11T00:22:49.446Z,96249.63
2023-01-11T00:23:54.999Z,96250.44
2023-01-11T00:24:57.510Z,96247.03
2023-01-11T00:26:02.871Z,96243.59
2023-01-11T00:27:07.804Z,96247.03
2023-01-11T00:28:12.968Z,96242.75
2023-01-11T00:29:15.452Z,96237.56
2023-01-11T00:30:21.250Z,96238.44
2023-01-11T00:31:23.843Z,96229.81
2023-01-11T00:32:30.032Z,96234.09
2023-01-11T00:33:32.619Z,96234.94
2023-01-11T00:34:38.161Z,96229.81
2023-01-11T00:35:40.655Z,96227.25
2023-01-11T00:36:45.919Z,96222.94
2023-01-11T00:37:49.573Z,96221.22
2023-01-11T00:38:55.873Z,96221.91
2023-01-11T00:39:58.296Z,96215.97
2023-01-11T00:41:24.404Z,96219.41
2023-01-11T00:42:44.756Z,96211.66
2023-01-11T00:44:02.270Z,96210.81
2023-01-11T00:45:20.470Z,96210.75
2023-01-11T00:46:49.669Z,96209.84
2023-01-11T00:48:01.303Z,96208.13
2023-01-11T00:49:03.712Z,96204.66
2023-01-11T00:50:09.974Z,96199.53
2023-01-11T00:51:12.303Z,96199.44
2023-01-11T00:52:17.343Z,96195.16
2023-01-11T00:53:22.445Z,96205.41
2023-01-11T00:54:25.257Z,96200.28
2023-01-11T00:55:33.746Z,96199.31
2023-01-11T00:56:36.514Z,96200.19
2023-01-11T00:57:44.456Z,96206.94
2023-01-11T00:58:46.634Z,96203.47
2023-01-11T00:59:51.479Z,96199.16
2023-01-11T01:00:53.971Z,96201.72
2023-01-11T01:01:58.758Z,96197.50
2023-01-11T01:03:06.611Z,96200.06
2023-01-11T01:04:08.911Z,96198.34
2023-01-11T01:05:14.628Z,96201.72
2023-01-11T01:06:17.269Z,96201.72
2023-01-11T01:07:22.614Z,96195.78
2023-01-11T01:08:25.099Z,96188.97
2023-01-11T01:09:31.692Z,96191.41
2023-01-11T01:10:33.962Z,96188.69
2023-01-11T01:11:39.371Z,96190.13
2023-01-11T01:13:00.293Z,96197.06
2023-01-11T01:14:17.836Z,96191.94
2023-01-11T01:15:23.806Z,96196.31
2023-01-11T01:16:26.075Z,96191.22
2023-01-11T01:17:37.264Z,96192.97
2023-01-11T01:18:39.684Z,96192.13
2023-01-11T01:19:45.205Z,96193.84
2023-01-11T01:20:50.696Z,96191.28
2023-01-11T01:21:55.838Z,96187.91
2023-01-11T01:22:58.347Z,96187.03
2023-01-11T01:24:03.971Z,96193.00
2023-01-11T01:25:06.966Z,96189.59
2023-01-11T01:26:12.434Z,96186.13
2023-01-11T01:27:18.103Z,96189.53
2023-01-11T01:28:27.141Z,96178.34
2023-01-11T01:29:30.172Z,96175.84
2023-01-11T01:30:35.250Z,96180.00
2023-01-11T01:31:37.561Z,96180.00
2023-01-11T01:32:45.076Z,96185.94
2023-01-11T01:33:47.313Z,96191.91
2023-01-11T01:34:52.525Z,96181.66
2023-01-11T01:35:54.902Z,96179.13
2023-01-11T01:37:00.044Z,96180.00
2023-01-11T01:38:02.496Z,96180.81
2023-01-11T01:39:09.662Z,96175.72
2023-01-11T01:40:13.274Z,96173.88
2023-01-11T01:41:19.505Z,96175.41
2023-01-11T01:42:22.600Z,96176.38
2023-01-11T01:43:51.062Z,96176.22
2023-01-11T01:45:02.962Z,96166.78
2023-01-11T01:46:11.315Z,96171.00
2023-01-11T01:47:14.422Z,96162.41
2023-01-11T01:48:23.756Z,96163.22
2023-01-11T01:49:26.035Z,96163.22
2023-01-11T01:50:36.777Z,96166.63
2023-01-11T01:51:44.944Z,96159.78
2023-01-11T01:52:53.678Z,96167.38
2023-01-11T01:53:59.524Z,96153.66
2023-01-11T01:55:09.366Z,96156.84
2023-01-11T01:56:16.458Z,96161.09
2023-01-11T01:57:26.253Z,96156.78
2023-01-11T01:58:37.210Z,96163.63
2023-01-11T01:59:42.539Z,96152.47
2023-01-11T02:00:46.670Z,96149.81
2023-01-11T02:01:53.404Z,96159.09
2023-01-11T02:02:58.187Z,96153.13
2023-01-11T02:04:04.662Z,96157.44
2023-01-11T02:05:09.437Z,96149.72
2023-01-11T02:06:14.874Z,96153.19
2023-01-11T02:07:20.153Z,96142.03
2023-01-11T02:08:32.741Z,96147.16
2023-01-11T02:09:41.932Z,96145.50
2023-01-11T02:10:47.597Z,96147.16
2023-01-11T02:11:52.651Z,96142.09
2023-01-11T02:13:01.979Z,96143.78
2023-01-11T02:14:12.372Z,96138.66
2023-01-11T02:15:19.540Z,96133.50
2023-01-11T02:16:21.713Z,96125.00
2023-01-11T02:17:28.094Z,96122.53
2023-01-11T02:18:30.541Z,96124.31
2023-01-11T02:19:52.731Z,96125.25
2023-01-11T02:21:09.872Z,96119.47
2023-01-11T02:22:50.934Z,96113.59
2023-01-11T02:24:22.556Z,96121.38
2023-01-11T02:25:54.028Z,96125.59
2023-01-11T02:27:29.054Z,96123.94
2023-01-11T02:28:42.482Z,96129.00
2023-01-11T02:29:59.327Z,96117.13
2023-01-11T02:31:11.585Z,96117.22
2023-01-11T02:32:29.006Z,96120.72
2023-01-11T02:33:42.251Z,96120.66
2023-01-11T02:34:53.797Z,96119.72
2023-01-11T02:36:06.078Z,96115.47
2023-01-11T02:37:19.824Z,96123.94
2023-01-11T02:38:29.105Z,96122.28
2023-01-11T02:39:44.845Z,96119.44
2023-01-11T02:40:54.933Z,96118.69
2023-01-11T02:42:20.475Z,96112.75
2023-01-11T02:43:43.822Z,96110.97
2023-01-11T02:45:07.322Z,96105.97
2023-01-11T02:46:13.638Z,96102.75
2023-01-11T02:47:22.070Z,96094.22
2023-01-11T02:48:35.262Z,96096.78
2023-01-11T02:49:44.191Z,96099.09
2023-01-11T02:50:55.727Z,96098.38
2023-01-11T02:52:02.269Z,96095.03
2023-01-11T02:53:13.657Z,96095.06
2023-01-11T02:54:20.467Z,96089.19
2023-01-11T02:55:30.832Z,96089.22
2023-01-11T02:56:36.830Z,96096.84
2023-01-11T02:57:43.785Z,96089.19
2023-01-11T02:58:48.946Z,96090.88
2023-01-11T03:00:00.636Z,96089.09
2023-01-11T03:01:04.493Z,96080.66
2023-01-11T03:02:10.121Z,96085.84
2023-01-11T03:03:16.005Z,96080.66
2023-01-11T03:04:30.966Z,96089.16
2023-01-11T03:05:35.205Z,96081.53
2023-01-11T03:06:41.109Z,96088.19
2023-01-11T03:07:58.836Z,96076.97
2023-01-11T03:09:18.060Z,96082.06
2023-01-11T03:10:38.671Z,96077.75
2023-01-11T03:12:09.041Z,96080.31
2023-01-11T03:13:25.257Z,96081.13
2023-01-11T03:14:36.173Z,96086.09
2023-01-11T03:16:01.652Z,96080.94
2023-01-11T03:17:12.573Z,96076.56
2023-01-11T03:18:40.241Z,96072.25
2023-01-11T03:19:47.925Z,96078.97
2023-01-11T03:20:57.866Z,96066.16
2023-01-11T03:22:06.417Z,96070.34
2023-01-11T03:23:19.075Z,96068.50
2023-01-11T03:24:31.782Z,96063.28
2023-01-11T03:25:46.329Z,96060.66
2023-01-11T03:27:03.880Z,96075.25
2023-01-11T03:28:16.794Z,96063.31
2023-01-11T03:29:28.431Z,96059.00
2023-01-11T03:30:36.069Z,96058.88
2023-01-11T03:31:49.317Z,96065.47
2023-01-11T03:33:01.877Z,96061.00
2023-01-11T03:34:11.880Z,96069.34
2023-01-11T03:35:23.756Z,96075.19
2023-01-11T03:36:32.271Z,96068.31
2023-01-11T03:37:43.662Z,96068.19
2023-01-11T03:38:51.389Z,96064.75
2023-01-11T03:40:04.389Z,96072.38
2023-01-11T03:41:11.058Z,96070.69
2023-01-11T03:42:20.254Z,96074.03
2023-01-11T03:43:25.550Z,96068.69
2023-01-11T03:44:35.596Z,96078.91
2023-01-11T03:45:43.837Z,96064.44
2023-01-11T03:46:55.479Z,96069.50
2023-01-11T03:47:59.646Z,96074.72
2023-01-11T03:49:08.642Z,96072.75
2023-01-11T03:50:13.356Z,96073.41
2023-01-11T03:51:25.525Z,96071.75
2023-01-11T03:52:32.340Z,96074.25
2023-01-11T03:53:41.505Z,96068.09
2023-01-11T03:54:45.299Z,96072.41
2023-01-11T03:55:53.382Z,96074.03
2023-01-11T03:57:06.158Z,96058.53
2023-01-11T03:58:09.750Z,96064.41
2023-01-11T03:59:15.273Z,96062.31
2023-01-11T04:00:21.613Z,96060.72
2023-01-11T04:01:25.265Z,96054.84
2023-01-11T04:02:39.740Z,96050.44
2023-01-11T04:03:42.505Z,96060.56
2023-01-11T04:04:48.475Z,96051.84
2023-01-11T04:05:55.249Z,96053.34
2023-01-11T04:07:00.917Z,96044.00
2023-01-11T04:08:03.515Z,96048.00
2023-01-11T04:09:09.697Z,96041.94
2023-01-11T04:10:12.787Z,96049.69
2023-01-11T04:11:18.205Z,96053.16
2023-01-11T04:12:20.320Z,96049.78
2023-01-11T04:13:25.642Z,96042.03
2023-01-11T04:14:28.297Z,96037.63
2023-01-11T04:15:35.624Z,96033.38
2023-01-11T04:16:38.337Z,96034.91
2023-01-11T04:17:47.209Z,96028.97
2023-01-11T04:18:49.879Z,96030.72
2023-01-11T04:19:55.909Z,96033.31
2023-01-11T04:20:58.172Z,96029.69
2023-01-11T04:22:03.285Z,96026.94
2023-01-11T04:23:06.819Z,96014.97
2023-01-11T04:24:13.749Z,96015.19
2023-01-11T04:25:16.416Z,96022.09
2023-01-11T04:26:21.534Z,96019.56
2023-01-11T04:27:23.954Z,96018.00
2023-01-11T04:28:31.625Z,96017.16
2023-01-11T04:29:33.778Z,96021.47
2023-01-11T04:30:39.317Z,96028.31
2023-01-11T04:31:41.733Z,96028.28
2023-01-11T04:32:50.822Z,96025.81
2023-01-11T04:33:53.291Z,96029.31
2023-01-11T04:34:58.644Z,96030.06
2023-01-11T04:36:05.447Z,96028.16
2023-01-11T04:37:12.168Z,96026.41
2023-01-11T04:38:14.996Z,96028.25
2023-01-11T04:39:20.241Z,96036.72
2023-01-11T04:40:22.768Z,96033.41
2023-01-11T04:41:40.342Z,96028.06
2023-01-11T04:42:47.841Z,96023.84
2023-01-11T04:43:50.389Z,96024.66
2023-01-11T04:44:56.608Z,96022.09
2023-01-11T04:45:59.000Z,96027.75
2023-01-11T04:47:04.685Z,96019.31
2023-01-11T04:48:10.755Z,96029.69
2023-01-11T04:49:16.200Z,96026.34
2023-01-11T04:50:18.780Z,96018.81
2023-01-11T04:51:24.438Z,96015.31
2023-01-11T04:52:26.934Z,96029.13
2023-01-11T04:53:34.513Z,96027.44
2023-01-11T04:54:36.598Z,96031.88
2023-01-11T04:55:42.446Z,96020.69
2023-01-11T04:56:44.603Z,96017.16
2023-01-11T04:57:50.433Z,96017.84
2023-01-11T04:58:53.258Z,96013.69
2023-01-11T04:59:59.683Z,96012.22
2023-01-11T05:01:02.493Z,96013.19
2023-01-11T05:02:08.193Z,96019.16
2023-01-11T05:03:14.843Z,96014.19
2023-01-11T05:04:19.826Z,96012.38
2023-01-11T05:05:22.396Z,96007.25
2023-01-11T05:06:27.209Z,96014.81
2023-01-11T05:07:30.006Z,96018.91
2023-01-11T05:08:36.872Z,96015.53
2023-01-11T05:09:41.407Z,96018.13
2023-01-11T05:10:47.458Z,96012.13
2023-01-11T05:11:50.138Z,96010.25
2023-01-11T05:12:55.118Z,96008.44
2023-01-11T05:14:00.683Z,96014.41
2023-01-11T05:15:06.095Z,96006.66
2023-01-11T05:16:09.867Z,96009.22
2023-01-11T05:17:17.600Z,96010.03
2023-01-11T05:18:23.931Z,96000.53
2023-01-11T05:19:29.063Z,96002.16
2023-01-11T05:20:31.376Z,96005.44
2023-01-11T05:21:39.741Z,96004.59
2023-01-11T05:22:42.253Z,96006.25
2023-01-11T05:23:47.716Z,96007.97
2023-01-11T05:24:52.857Z,96004.47
2023-01-11T05:25:55.216Z,96003.63
2023-01-11T05:27:00.649Z,96004.38
2023-01-11T05:28:03.186Z,96007.66
2023-01-11T05:29:10.305Z,96000.56
2023-01-11T05:30:13.365Z,96000.19
2023-01-11T05:31:19.556Z,96000.19
2023-01-11T05:32:25.052Z,96010.50
2023-01-11T05:33:30.668Z,96010.59
2023-01-11T05:34:36.115Z,96005.44
2023-01-11T05:35:38.915Z,96000.31
2023-01-11T05:36:45.357Z,95996.88
2023-01-11T05:37:47.513Z,95996.75
2023-01-11T05:38:54.728Z,95993.50
2023-01-11T05:39:57.171Z,95993.59
2023-01-11T05:41:06.316Z,96002.88
2023-01-11T05:42:11.857Z,95998.41
2023-01-11T05:43:14.426Z,95991.72
2023-01-11T05:44:31.543Z,95996.88
2023-01-11T05:45:33.919Z,95990.91
2023-01-11T05:46:41.073Z,95996.88
2023-01-11T05:47:43.345Z,96000.16
2023-01-11T05:48:57.581Z,96005.34
2023-01-11T05:50:02.804Z,96008.94
2023-01-11T05:51:05.966Z,95996.00
2023-01-11T05:52:12.637Z,95995.16
2023-01-11T05:53:16.194Z,95994.38
2023-01-11T05:54:23.910Z,95995.00
2023-01-11T05:55:27.812Z,95996.88
2023-01-11T05:56:33.546Z,95998.63
2023-01-11T05:57:36.547Z,95997.69
2023-01-11T05:58:44.656Z,96000.19
2023-01-11T05:59:50.147Z,95998.41
2023-01-11T06:00:54.059Z,95996.75
2023-01-11T06:01:59.337Z,96004.41
2023-01-11T06:03:05.306Z,96000.84
2023-01-11T06:04:22.029Z,96001.72
2023-01-11T06:05:26.352Z,96006.09
2023-01-11T06:06:37.262Z,95993.31
2023-01-11T06:07:42.767Z,95995.16
2023-01-11T06:08:50.734Z,96001.03
2023-01-11T06:10:01.543Z,96000.19
2023-01-11T06:11:05.279Z,95999.38
2023-01-11T06:12:14.245Z,95996.06
2023-01-11T06:13:27.637Z,95997.03
2023-01-11T06:14:33.438Z,95993.69
2023-01-11T06:15:37.055Z,95995.47
2023-01-11T06:16:50.173Z,95999.81
2023-01-11T06:17:52.910Z,95996.44
2023-01-11T06:18:59.941Z,95995.59
2023-01-11T06:20:32.408Z,95994.56
2023-01-11T06:21:42.244Z,95985.19
2023-01-11T06:22:44.863Z,95981.78
2023-01-11T06:23:54.714Z,95979.31
2023-01-11T06:25:01.676Z,95978.44
2023-01-11T06:26:09.888Z,95986.84
2023-01-11T06:27:12.326Z,95979.13
2023-01-11T06:28:18.035Z,95978.16
2023-01-11T06:29:20.447Z,95977.38
2023-01-11T06:30:28.715Z,95977.38
2023-01-11T06:31:35.716Z,95977.41
2023-01-11T06:32:38.162Z,95983.19
2023-01-11T06:33:43.241Z,95978.06
2023-01-11T06:34:48.795Z,95979.81
2023-01-11T06:35:51.886Z,95971.22
2023-01-11T06:36:59.774Z,95978.16
2023-01-11T06:38:02.180Z,95974.69
2023-01-11T06:39:07.818Z,95971.22
2023-01-11T06:40:11.965Z,95963.44
2023-01-11T06:41:17.437Z,95965.00
2023-01-11T06:42:19.833Z,95962.63
2023-01-11T06:43:28.622Z,95965.28
2023-01-11T06:44:31.190Z,95964.38
2023-01-11T06:45:39.065Z,95959.34
2023-01-11T06:46:44.432Z,95959.56
2023-01-11T06:47:46.825Z,95959.69
2023-01-11T06:48:52.347Z,95960.72
2023-01-11T06:49:54.753Z,95955.59
2023-01-11T06:51:01.267Z,95958.28
2023-01-11T06:52:06.776Z,95958.09
2023-01-11T06:53:12.459Z,95956.53
2023-01-11T06:54:22.583Z,95957.31
2023-01-11T06:55:26.123Z,95954.81
2023-01-11T06:56:31.516Z,95951.38
2023-01-11T06:57:34.392Z,95964.13
2023-01-11T06:58:45.587Z,95961.78
2023-01-11T06:59:52.477Z,95961.81
2023-01-11T07:00:57.447Z,95970.56
2023-01-11T07:02:02.763Z,95966.53
2023-01-11T07:03:06.697Z,95965.13
2023-01-11T07:04:13.869Z,95969.69
2023-01-11T07:05:19.349Z,95952.88
2023-01-11T07:06:25.223Z,95963.34
2023-01-11T07:07:30.413Z,95969.22
2023-01-11T07:08:35.897Z,95968.69
2023-01-11T07:09:38.533Z,95964.59
2023-01-11T07:10:43.892Z,95966.56
2023-01-11T07:11:48.987Z,95962.97
2023-01-11T07:12:52.052Z,95966.56
2023-01-11T07:13:57.659Z,95958.78
2023-01-11T07:15:01.520Z,95961.25
2023-01-11T07:16:07.074Z,95956.91
2023-01-11T07:17:12.404Z,95960.56
2023-01-11T07:18:17.884Z,95965.09
2023-01-11T07:19:22.740Z,95962.94
2023-01-11T07:20:25.709Z,95959.81
2023-01-11T07:21:31.220Z,95957.56
2023-01-11T07:22:37.285Z,95965.22
2023-01-11T07:23:42.183Z,95964.38
2023-01-11T07:24:46.434Z,95956.91
2023-01-11T07:25:53.398Z,95963.94
2023-01-11T07:26:56.859Z,95957.28
2023-01-11T07:28:02.917Z,95963.34
2023-01-11T07:29:05.282Z,95961.66
2023-01-11T07:30:14.964Z,95954.28
2023-01-11T07:31:21.207Z,95956.97
2023-01-11T07:32:23.427Z,95953.25
2023-01-11T07:33:29.224Z,95959.94
2023-01-11T07:34:31.988Z,95961.88
2023-01-11T07:35:38.496Z,95961.88
2023-01-11T07:36:40.894Z,95956.53
2023-01-11T07:37:50.647Z,95957.28
2023-01-11T07:38:55.937Z,95959.97
2023-01-11T07:39:58.501Z,95950.47
2023-01-11T07:41:24.165Z,95947.94
2023-01-11T07:42:41.922Z,95952.38
2023-01-11T07:43:44.157Z,95948.84
2023-01-11T07:44:47.056Z,95949.56
2023-01-11T07:45:55.912Z,95946.88
2023-01-11T07:46:58.848Z,95949.63
2023-01-11T07:48:04.269Z,95945.22
2023-01-11T07:49:06.844Z,95935.03
2023-01-11T07:50:13.839Z,95937.63
2023-01-11T07:51:24.669Z,95942.69
2023-01-11T07:52:27.040Z,95940.78
2023-01-11T07:53:35.866Z,95940.69
2023-01-11T07:54:38.916Z,95942.22
2023-01-11T07:55:44.452Z,95935.81
2023-01-11T07:56:50.004Z,95938.25
2023-01-11T07:57:57.626Z,95940.03
2023-01-11T07:59:00.383Z,95946.63
2023-01-11T08:00:06.797Z,95951.47
2023-01-11T08:01:09.541Z,95943.66
2023-01-11T08:02:15.364Z,95938.44
2023-01-11T08:03:20.998Z,95942.53
2023-01-11T08:04:23.647Z,95937.28
2023-01-11T08:05:28.928Z,95944.16
2023-01-11T08:06:31.342Z,95955.25
2023-01-11T08:07:38.129Z,95945.81
2023-01-11T08:08:47.046Z,95946.59
2023-01-11T08:09:49.500Z,95952.47
2023-01-11T08:11:08.318Z,95951.50
2023-01-11T08:12:25.680Z,95949.66
2023-01-11T08:13:42.986Z,95952.06
2023-01-11T08:14:48.144Z,95958.66
2023-01-11T08:15:53.746Z,95954.13
2023-01-11T08:16:56.307Z,95956.41
2023-01-11T08:18:02.210Z,95958.72
2023-01-11T08:19:04.908Z,95962.03
2023-01-11T08:20:10.871Z,95959.31
2023-01-11T08:21:16.578Z,95962.56
2023-01-11T08:22:22.082Z,95961.50
2023-01-11T08:23:27.842Z,95958.75
2023-01-11T08:24:34.137Z,95958.47
2023-01-11T08:25:39.956Z,95958.19
2023-01-11T08:26:42.273Z,95958.06
2023-01-11T08:27:48.469Z,95957.13
2023-01-11T08:28:54.212Z,95958.75
2023-01-11T08:29:59.641Z,95950.94
2023-01-11T08:31:11.003Z,95958.53
2023-01-11T08:32:16.948Z,95959.28
2023-01-11T08:33:22.848Z,95959.97
2023-01-11T08:34:26.232Z,95953.53
2023-01-11T08:35:32.495Z,95965.63
2023-01-11T08:36:35.146Z,95963.72
2023-01-11T08:37:40.787Z,95967.63
2023-01-11T08:38:44.699Z,95959.91
2023-01-11T08:39:56.455Z,95961.78
2023-01-11T08:41:01.826Z,95960.56
2023-01-11T08:42:04.678Z,95958.00
2023-01-11T08:43:12.634Z,95964.31
2023-01-11T08:44:29.076Z,95957.03
2023-01-11T08:45:38.702Z,95958.34
2023-01-11T08:46:41.410Z,95956.78
2023-01-11T08:47:47.486Z,95956.28
2023-01-11T08:48:50.575Z,95958.16
2023-01-11T08:49:58.479Z,95952.88
2023-01-11T08:51:01.119Z,95951.13
2023-01-11T08:52:07.056Z,95970.44
2023-01-11T08:53:12.143Z,95964.53
2023-01-11T08:54:18.427Z,95968.41
2023-01-11T08:55:27.348Z,95961.06
2023-01-11T08:56:29.730Z,95964.13
2023-01-11T08:57:35.908Z,95966.34
2023-01-11T08:58:38.464Z,95961.31
2023-01-11T08:59:46.266Z,95972.03
2023-01-11T09:00:48.885Z,95967.81
2023-01-11T09:01:56.777Z,95970.34
2023-01-11T09:03:04.183Z,95963.84
2023-01-11T09:04:15.774Z,95969.69
2023-01-11T09:05:25.496Z,95959.78
2023-01-11T09:06:30.810Z,95963.25
2023-01-11T09:07:36.553Z,95961.44
2023-01-11T09:08:39.132Z,95962.09
2023-01-11T09:09:44.647Z,95961.91
2023-01-11T09:10:52.359Z,95966.00
2023-01-11T09:12:00.666Z,95967.13
2023-01-11T09:13:03.175Z,95956.03
2023-01-11T09:14:09.017Z,95956.09
2023-01-11T09:15:15.846Z,95961.19
2023-01-11T09:16:18.640Z,95956.28
2023-01-11T09:17:24.731Z,95957.50
2023-01-11T09:18:27.613Z,95958.53
2023-01-11T09:19:35.423Z,95958.16
2023-01-11T09:20:37.574Z,95956.03
2023-01-11T09:21:42.905Z,95959.63
2023-01-11T09:22:52.728Z,95957.97
2023-01-11T09:23:55.288Z,95959.16
2023-01-11T09:25:03.154Z,95951.50
2023-01-11T09:26:11.552Z,95949.00
2023-01-11T09:27:16.895Z,95950.75
2023-01-11T09:28:19.862Z,95948.03
2023-01-11T09:29:25.850Z,95947.44
2023-01-11T09:30:28.338Z,95957.06
2023-01-11T09:31:33.987Z,95955.94
2023-01-11T09:32:41.648Z,95951.13
2023-01-11T09:33:44.002Z,95946.09
2023-01-11T09:34:50.146Z,95948.38
2023-01-11T09:35:53.139Z,95948.41
2023-01-11T09:37:02.713Z,95955.31
2023-01-11T09:38:05.235Z,95949.03
2023-01-11T09:39:16.431Z,95949.59
2023-01-11T09:40:22.801Z,95953.44
2023-01-11T09:41:43.435Z,95956.28
2023-01-11T09:42:53.210Z,95956.66
2023-01-11T09:44:04.498Z,95950.72
2023-01-11T09:45:17.869Z,95949.94
2023-01-11T09:46:20.639Z,95950.16
2023-01-11T09:47:37.159Z,95951.63
2023-01-11T09:48:48.013Z,95951.84
2023-01-11T09:50:00.839Z,95952.09
2023-01-11T09:51:07.484Z,95948.84
2023-01-11T09:52:24.360Z,95955.69
2023-01-11T09:53:36.551Z,95942.03
2023-01-11T09:54:42.305Z,95957.50
2023-01-11T09:55:52.665Z,95945.44
2023-01-11T09:57:16.678Z,95945.38
2023-01-11T09:58:43.747Z,95939.97
2023-01-11T09:59:54.614Z,95942.44
2023-01-11T10:01:07.176Z,95936.31
2023-01-11T10:02:23.980Z,95944.88
2023-01-11T10:04:04.837Z,95927.59
2023-01-11T10:05:30.326Z,95941.59
2023-01-11T10:06:46.339Z,95934.69
2023-01-11T10:18:28.620Z,95934.25
2023-01-11T10:18:32.626Z,95924.63
2023-01-11T10:18:44.793Z,95918.63
2023-01-11T10:20:46.687Z,95933.75
2023-01-11T10:21:56.133Z,95931.06
2023-01-11T10:23:12.164Z,95932.06
2023-01-11T10:24:25.047Z,95925.06
2023-01-11T10:25:37.969Z,95924.31
2023-01-11T10:26:41.657Z,95922.44
2023-01-11T10:27:59.615Z,95927.38
2023-01-11T10:29:18.379Z,95926.09
2023-01-11T10:30:49.759Z,95919.13
2023-01-11T10:32:13.931Z,95927.66
2023-01-11T10:33:38.899Z,95918.44
2023-01-11T10:35:00.396Z,95921.84
2023-01-11T10:36:15.263Z,95927.16
2023-01-11T10:37:44.569Z,95921.06
2023-01-11T10:39:12.312Z,95922.81
2023-01-11T10:40:38.311Z,95921.78
2023-01-11T10:41:57.946Z,95920.03
2023-01-11T10:43:10.666Z,95916.59
2023-01-11T10:44:27.218Z,95917.44
2023-01-11T10:45:42.433Z,95919.00
2023-01-11T10:46:52.372Z,95913.84
2023-01-11T10:47:59.854Z,95918.09
2023-01-11T10:49:26.113Z,95923.84
2023-01-11T10:50:40.799Z,95922.09
2023-01-11T10:51:49.571Z,95919.34
2023-01-11T10:53:03.035Z,95919.34
2023-01-11T10:54:18.367Z,95911.22
2023-01-11T10:55:27.572Z,95917.22
2023-01-11T10:57:02.518Z,95914.72
2023-01-11T10:58:20.407Z,95915.84
2023-01-11T10:59:44.322Z,95911.50
2023-01-11T11:01:01.837Z,95909.69
2023-01-11T11:02:22.063Z,95908.59
2023-01-11T11:03:44.338Z,95904.13
2023-01-11T11:05:05.537Z,95901.50
2023-01-11T11:06:21.385Z,95905.41
2023-01-11T11:07:35.068Z,95904.00
2023-01-11T11:08:49.462Z,95903.31
2023-01-11T11:10:03.557Z,95896.19
2023-01-11T11:11:18.152Z,95902.69
2023-01-11T11:12:28.116Z,95904.28
2023-01-11T11:13:43.426Z,95899.28
2023-01-11T11:14:57.865Z,95898.91
2023-01-11T11:16:08.092Z,95901.50
2023-01-11T11:17:21.761Z,95901.78
2023-01-11T11:18:27.260Z,95910.00
2023-01-11T11:19:34.332Z,95903.72
2023-01-11T11:20:40.362Z,95902.03
2023-01-11T11:21:43.845Z,95898.03
2023-01-11T11:22:53.252Z,95901.34
2023-01-11T11:24:03.014Z,95903.56
2023-01-11T11:25:28.381Z,95900.25
2023-01-11T11:26:37.826Z,95897.56
2023-01-11T11:27:46.588Z,95895.00
2023-01-11T11:29:11.300Z,95893.53
2023-01-11T11:30:19.211Z,95894.50
2023-01-11T11:31:21.777Z,95890.44
2023-01-11T11:32:33.166Z,95881.03
2023-01-11T11:33:44.463Z,95881.72
2023-01-11T11:34:48.436Z,95877.38
2023-01-11T11:36:00.736Z,95877.13
2023-01-11T11:37:05.965Z,95875.38
2023-01-11T11:38:24.556Z,95878.75
2023-01-11T11:39:35.229Z,95873.69
2023-01-11T11:40:45.683Z,95871.19
2023-01-11T11:41:49.943Z,95873.97
2023-01-11T11:43:20.934Z,95878.66
2023-01-11T11:44:31.640Z,95880.56
2023-01-11T11:45:34.291Z,95873.59
2023-01-11T11:46:41.750Z,95873.69
2023-01-11T11:47:52.571Z,95878.81
2023-01-11T11:49:18.900Z,95872.94
2023-01-11T11:50:43.748Z,95871.34
2023-01-11T11:51:51.585Z,95870.41
2023-01-11T11:52:57.326Z,95871.84
2023-01-11T11:54:03.135Z,95875.44
2023-01-11T11:55:12.863Z,95870.41
2023-01-11T11:56:23.392Z,95862.53
2023-01-11T11:57:46.084Z,95865.84
2023-01-11T11:59:02.758Z,95864.38
2023-01-11T12:00:30.151Z,95867.00
2023-01-11T12:01:53.604Z,95861.84
2023-01-11T12:04:45.358Z,95863.59
2023-01-11T12:06:02.306Z,95863.50
2023-01-11T12:07:07.604Z,95861.78
2023-01-11T12:08:18.233Z,95856.69
2023-01-11T12:09:35.946Z,95862.81
2023-01-11T12:11:26.380Z,95860.94
2023-01-11T12:12:32.711Z,95857.38
2023-01-11T12:13:43.058Z,95851.09
2023-01-11T12:15:21.595Z,95849.28
2023-01-11T12:16:28.157Z,95846.50
2023-01-11T12:17:34.293Z,95852.91
2023-01-11T12:18:46.571Z,95846.84
2023-01-11T12:19:53.210Z,95832.38
2023-01-11T12:20:56.135Z,95847.09
2023-01-11T12:22:15.738Z,95845.44
2023-01-11T12:23:24.862Z,95855.28
2023-01-11T12:24:29.797Z,95838.91
2023-01-11T12:25:33.313Z,95835.59
2023-01-11T12:26:44.314Z,95844.31
2023-01-11T12:27:58.559Z,95841.34
2023-01-11T12:29:48.511Z,95839.88
2023-01-11T12:31:06.606Z,95834.34
2023-01-11T12:32:33.626Z,95833.34
2023-01-11T12:33:50.092Z,95843.41
2023-01-11T12:35:18.850Z,95848.50
2023-01-11T12:36:34.080Z,95849.28
2023-01-11T12:37:57.960Z,95839.69
2023-01-11T12:39:13.538Z,95834.06
2023-01-11T12:40:23.374Z,95844.59
2023-01-11T12:41:52.164Z,95844.53
2023-01-11T12:43:23.659Z,95843.69
2023-01-11T12:44:54.618Z,95844.41
2023-01-11T12:46:17.580Z,95845.44
2023-01-11T12:47:58.687Z,95844.13
2023-01-11T12:49:18.363Z,95845.25
2023-01-11T12:50:25.113Z,95844.53
2023-01-11T12:51:51.287Z,95840.91
2023-01-11T12:53:25.177Z,95843.84
2023-01-11T12:54:52.948Z,95839.78
2023-01-11T12:56:22.830Z,95845.94
2023-01-11T12:57:35.576Z,95841.94
2023-01-11T12:58:50.311Z,95844.47
2023-01-11T13:00:13.720Z,95846.84
2023-01-11T13:01:40.337Z,95840.63
2023-01-11T13:03:14.344Z,95841.53
2023-01-11T13:04:45.952Z,95843.34
2023-01-11T13:06:01.155Z,95838.88
2023-01-11T13:07:18.302Z,95839.09
2023-01-11T13:08:32.132Z,95838.38
2023-01-11T13:09:54.116Z,95839.44
2023-01-11T13:11:06.204Z,95846.34
2023-01-11T13:12:24.172Z,95844.59
2023-01-11T13:13:36.118Z,95851.44
2023-01-11T13:14:58.023Z,95846.28
2023-01-11T13:16:04.531Z,95838.38
2023-01-11T13:17:23.492Z,95838.47
2023-01-11T13:18:40.590Z,95829.88
2023-01-11T13:19:55.258Z,95836.84
2023-01-11T13:21:06.908Z,95838.47
2023-01-11T13:22:18.652Z,95850.41
2023-01-11T13:23:36.095Z,95858.06
2023-01-11T13:24:42.320Z,95837.41
2023-01-11T13:25:52.855Z,95850.25
2023-01-11T13:27:00.857Z,95838.19
2023-01-11T13:28:24.044Z,95858.06
2023-01-11T13:29:32.590Z,95857.25
2023-01-11T13:30:35.715Z,95863.03
2023-01-11T13:31:42.349Z,95854.31
2023-01-11T13:32:56.439Z,95856.13
2023-01-11T13:34:10.556Z,95848.38
2023-01-11T13:35:20.378Z,95855.91
2023-01-11T13:36:35.108Z,95846.22
2023-01-11T13:37:43.807Z,95846.28
2023-01-11T13:38:53.598Z,95854.09
2023-01-11T13:40:02.821Z,95859.47
2023-01-11T13:41:17.235Z,95864.00
2023-01-11T13:42:26.692Z,95864.94
2023-01-11T13:43:37.486Z,95863.09
2023-01-11T13:44:50.635Z,95869.97